createdAt,value
2018-06-30T00:01:27.812Z,17.41
2018-06-30T00:03:57.905Z,17.35
2018-06-30T00:06:28.017Z,17.31
2018-06-30T00:08:57.786Z,17.28
2018-06-30T00:11:27.346Z,17.24
2018-06-30T00:13:56.896Z,17.18
2018-06-30T00:16:26.611Z,17.10
2018-06-30T00:18:55.954Z,17.08
2018-06-30T00:21:25.345Z,17.09
2018-06-30T00:23:54.759Z,16.99
2018-06-30T00:26:23.945Z,16.96
2018-06-30T00:28:53.441Z,16.92
2018-06-30T00:31:22.897Z,16.91
2018-06-30T00:33:52.093Z,16.88
2018-06-30T00:36:21.598Z,16.86
2018-06-30T00:38:51.059Z,16.77
2018-06-30T00:41:20.321Z,16.73
2018-06-30T00:43:49.837Z,16.73
2018-06-30T00:46:19.285Z,16.70
2018-06-30T00:48:48.621Z,16.67
2018-06-30T00:51:17.986Z,16.63
2018-06-30T00:53:47.379Z,16.56
2018-06-30T00:56:16.564Z,16.50
2018-06-30T00:58:46.061Z,16.45
2018-06-30T01:01:15.236Z,16.45
2018-06-30T01:03:44.584Z,16.44
2018-06-30T01:06:13.982Z,16.43
2018-06-30T01:08:43.196Z,16.40
2018-06-30T01:11:12.437Z,16.32
2018-06-30T01:13:42.536Z,16.20
2018-06-30T01:16:11.900Z,16.16
2018-06-30T01:18:41.045Z,16.12
2018-06-30T01:21:10.364Z,16.06
2018-06-30T01:23:40.160Z,16.10
2018-06-30T01:26:09.462Z,16.11
2018-06-30T01:28:38.977Z,16.06
2018-06-30T01:31:08.689Z,16.13
2018-06-30T01:33:38.021Z,16.13
2018-06-30T01:36:07.713Z,16.02
2018-06-30T01:38:37.380Z,15.97
2018-06-30T01:41:06.750Z,15.88
2018-06-30T01:43:36.372Z,15.80
2018-06-30T01:46:05.673Z,15.70
2018-06-30T01:48:35.160Z,15.67
2018-06-30T01:51:04.780Z,15.66
2018-06-30T01:53:33.956Z,15.62
2018-06-30T01:56:03.361Z,15.58
2018-06-30T01:58:32.704Z,15.55
2018-06-30T02:01:01.810Z,15.51
2018-06-30T02:03:31.309Z,15.50
2018-06-30T02:06:00.828Z,15.50
2018-06-30T02:08:29.940Z,15.48
2018-06-30T02:10:59.413Z,15.52
2018-06-30T02:13:28.928Z,15.54
2018-06-30T02:15:59.292Z,15.42
2018-06-30T02:18:29.166Z,15.39
2018-06-30T02:20:58.685Z,15.36
2018-06-30T02:23:27.935Z,15.31
2018-06-30T02:25:57.485Z,15.19
2018-06-30T02:28:26.863Z,15.06
2018-06-30T02:30:56.112Z,14.84
2018-06-30T02:33:25.466Z,14.95
2018-06-30T02:35:54.716Z,14.99
2018-06-30T02:38:23.859Z,14.98
2018-06-30T02:40:53.281Z,13.65
2018-06-30T02:43:22.962Z,14.96
2018-06-30T02:45:52.187Z,15.03
2018-06-30T02:48:21.545Z,15.07
2018-06-30T02:50:50.744Z,15.02
2018-06-30T02:53:19.964Z,14.98
2018-06-30T02:55:49.501Z,15.03
2018-06-30T02:58:19.202Z,15.08
2018-06-30T03:00:48.440Z,15.08
2018-06-30T03:03:17.939Z,15.04
2018-06-30T03:05:47.803Z,15.03
2018-06-30T03:08:17.107Z,15.01
2018-06-30T03:10:46.264Z,15.01
2018-06-30T03:13:16.012Z,14.93
2018-06-30T03:15:45.588Z,14.98
2018-06-30T03:18:14.965Z,15.04
2018-06-30T03:20:44.362Z,15.03
2018-06-30T03:23:13.696Z,15.02
2018-06-30T03:25:42.932Z,15.04
2018-06-30T03:28:12.352Z,15.03
2018-06-30T03:30:41.722Z,14.98
2018-06-30T03:33:10.891Z,14.97
2018-06-30T03:35:40.359Z,14.93
2018-06-30T03:38:09.754Z,14.97
2018-06-30T03:40:38.928Z,14.99
2018-06-30T03:43:08.279Z,15.05
2018-06-30T03:45:37.851Z,15.07
2018-06-30T03:48:07.390Z,15.12
2018-06-30T03:50:36.532Z,15.17
2018-06-30T03:53:05.943Z,15.20
2018-06-30T03:55:35.127Z,15.14
2018-06-30T03:58:04.608Z,15.20
2018-06-30T04:00:33.852Z,15.24
2018-06-30T04:03:03.035Z,15.29
2018-06-30T04:05:32.438Z,15.26
2018-06-30T04:08:01.683Z,15.20
2018-06-30T04:10:31.127Z,15.19
2018-06-30T04:13:00.344Z,15.23
2018-06-30T04:15:29.578Z,15.15
2018-06-30T04:17:59.518Z,15.15
2018-06-30T04:20:28.955Z,15.20
2018-06-30T04:22:58.118Z,15.28
2018-06-30T04:25:27.941Z,15.32
2018-06-30T04:27:57.058Z,15.35
2018-06-30T04:30:26.203Z,15.32
2018-06-30T04:32:56.044Z,15.31
2018-06-30T04:35:25.431Z,15.29
2018-06-30T04:37:54.677Z,15.33
2018-06-30T04:40:24.580Z,15.38
2018-06-30T04:42:54.039Z,15.41
2018-06-30T04:45:23.307Z,15.45
2018-06-30T04:47:52.820Z,15.42
2018-06-30T04:50:22.018Z,15.50
2018-06-30T04:52:51.188Z,15.60
2018-06-30T04:55:20.711Z,15.77
2018-06-30T04:57:50.274Z,15.91
2018-06-30T05:00:19.454Z,15.92
2018-06-30T05:02:49.030Z,15.94
2018-06-30T05:05:18.093Z,15.78
2018-06-30T05:07:47.402Z,15.85
2018-06-30T05:10:16.953Z,15.81
2018-06-30T05:12:46.335Z,15.67
2018-06-30T05:15:15.479Z,15.95
2018-06-30T05:17:45.009Z,16.13
2018-06-30T05:20:14.201Z,16.20
2018-06-30T05:22:43.539Z,16.20
2018-06-30T05:25:12.991Z,16.14
2018-06-30T05:27:42.367Z,16.16
2018-06-30T05:30:11.609Z,16.22
2018-06-30T05:32:41.185Z,16.29
2018-06-30T05:35:10.741Z,16.29
2018-06-30T05:37:40.032Z,16.36
2018-06-30T05:40:09.467Z,16.49
2018-06-30T05:42:38.846Z,16.63
2018-06-30T05:45:07.926Z,16.68
2018-06-30T05:47:37.323Z,16.58
2018-06-30T05:50:06.782Z,16.63
2018-06-30T05:52:36.053Z,16.73
2018-06-30T05:55:05.719Z,16.77
2018-06-30T05:57:35.397Z,16.81
2018-06-30T06:00:04.846Z,16.92
2018-06-30T06:02:34.551Z,16.91
2018-06-30T06:05:04.229Z,16.43
2018-06-30T06:07:33.835Z,17.09
2018-06-30T06:10:03.501Z,17.07
2018-06-30T06:12:33.085Z,17.12
2018-06-30T06:15:04.198Z,17.20
2018-06-30T06:17:34.929Z,17.26
2018-06-30T06:20:04.796Z,17.28
2018-06-30T06:22:34.796Z,17.33
2018-06-30T06:25:04.637Z,17.37
2018-06-30T06:27:34.535Z,17.40
2018-06-30T06:30:04.823Z,17.49
2018-06-30T06:32:35.001Z,17.56
2018-06-30T06:35:04.686Z,17.64
2018-06-30T06:37:34.294Z,17.67
2018-06-30T06:40:03.804Z,17.66
2018-06-30T06:42:33.678Z,17.69
2018-06-30T06:45:02.857Z,17.73
2018-06-30T06:47:32.961Z,17.76
2018-06-30T06:50:02.452Z,17.83
2018-06-30T06:52:32.055Z,17.82
2018-06-30T06:55:01.813Z,17.93
2018-06-30T06:57:31.603Z,17.32
2018-06-30T07:00:01.173Z,18.05
2018-06-30T07:02:30.670Z,17.93
2018-06-30T07:05:00.285Z,18.01
2018-06-30T07:07:29.378Z,18.09
2018-06-30T07:09:58.705Z,18.16
2018-06-30T07:12:28.335Z,18.21
2018-06-30T07:14:57.889Z,18.32
2018-06-30T07:17:27.245Z,18.40
2018-06-30T07:19:56.915Z,18.51
2018-06-30T07:22:26.535Z,18.53
2018-06-30T07:24:56.163Z,18.59
2018-06-30T07:27:25.926Z,18.62
2018-06-30T07:29:55.715Z,18.77
2018-06-30T07:32:25.066Z,18.91
2018-06-30T07:34:54.436Z,19.52
2018-06-30T07:37:23.868Z,21.25
2018-06-30T07:39:53.140Z,22.31
2018-06-30T07:42:22.489Z,22.86
2018-06-30T07:44:51.790Z,23.09
2018-06-30T07:47:21.277Z,23.38
2018-06-30T07:49:50.481Z,23.62
2018-06-30T07:52:20.196Z,23.87
2018-06-30T07:54:49.908Z,24.02
2018-06-30T07:57:19.265Z,24.21
2018-06-30T07:59:48.982Z,24.03
2018-06-30T08:02:18.550Z,24.22
2018-06-30T08:04:48.268Z,23.31
2018-06-30T08:07:17.767Z,22.66
2018-06-30T08:09:47.577Z,22.26
2018-06-30T08:12:17.470Z,22.34
2018-06-30T08:14:46.616Z,22.30
2018-06-30T08:17:16.253Z,22.34
2018-06-30T08:19:45.585Z,22.19
2018-06-30T08:22:14.735Z,22.22
2018-06-30T08:24:44.780Z,22.31
2018-06-30T08:27:14.692Z,21.99
2018-06-30T08:29:44.356Z,22.15
2018-06-30T08:32:14.543Z,22.35
2018-06-30T08:34:44.353Z,22.34
2018-06-30T08:37:13.982Z,22.31
2018-06-30T08:39:43.857Z,22.38
2018-06-30T08:42:13.893Z,22.41
2018-06-30T08:44:43.795Z,22.40
2018-06-30T08:47:14.768Z,22.60
2018-06-30T08:49:44.517Z,22.44
2018-06-30T08:52:14.515Z,22.56
2018-06-30T08:54:44.619Z,22.38
2018-06-30T08:57:14.205Z,22.49
2018-06-30T08:59:44.237Z,22.46
2018-06-30T09:02:14.033Z,22.43
2018-06-30T09:04:43.686Z,22.46
2018-06-30T09:07:13.264Z,22.34
2018-06-30T09:09:42.956Z,22.36
2018-06-30T09:12:12.155Z,22.38
2018-06-30T09:14:41.956Z,22.45
2018-06-30T09:17:11.766Z,22.30
2018-06-30T09:19:41.284Z,22.47
2018-06-30T09:22:10.758Z,22.46
2018-06-30T09:24:41.095Z,22.46
2018-06-30T09:27:11.312Z,22.37
2018-06-30T09:29:41.145Z,22.49
2018-06-30T09:32:10.589Z,22.58
2018-06-30T09:34:40.089Z,22.40
2018-06-30T09:37:10.210Z,22.49
2018-06-30T09:39:39.773Z,22.58
2018-06-30T09:42:09.345Z,22.46
2018-06-30T09:44:39.449Z,22.34
2018-06-30T09:47:09.014Z,22.37
2018-06-30T09:49:38.912Z,22.42
2018-06-30T09:52:08.651Z,22.36
2018-06-30T09:54:38.137Z,22.45
2018-06-30T09:57:07.893Z,22.36
2018-06-30T09:59:37.584Z,22.39
2018-06-30T10:02:07.040Z,22.36
2018-06-30T10:04:37.315Z,22.25
2018-06-30T10:07:07.315Z,22.34
2018-06-30T10:09:37.120Z,22.30
2018-06-30T10:12:06.474Z,22.37
2018-06-30T10:14:36.211Z,22.44
2018-06-30T10:17:05.976Z,22.53
2018-06-30T10:19:35.755Z,22.61
2018-06-30T10:22:05.231Z,22.43
2018-06-30T10:24:34.917Z,22.52
2018-06-30T10:27:05.180Z,22.60
2018-06-30T10:29:34.890Z,22.52
2018-06-30T10:32:04.454Z,22.53
2018-06-30T10:34:33.944Z,22.32
2018-06-30T10:37:03.877Z,22.49
2018-06-30T10:39:33.605Z,22.49
2018-06-30T10:42:02.943Z,22.35
2018-06-30T10:44:32.636Z,22.36
2018-06-30T10:47:02.548Z,22.40
2018-06-30T10:49:32.050Z,22.31
2018-06-30T10:52:01.629Z,22.00
2018-06-30T10:54:30.818Z,22.02
2018-06-30T10:57:00.032Z,22.05
2018-06-30T10:59:29.606Z,22.04
2018-06-30T11:01:58.925Z,22.14
2018-06-30T11:04:28.417Z,22.09
2018-06-30T11:06:58.658Z,22.09
2018-06-30T11:09:28.296Z,22.15
2018-06-30T11:11:57.851Z,22.22
2018-06-30T11:14:27.451Z,22.35
2018-06-30T11:16:57.213Z,22.19
2018-06-30T11:19:27.473Z,22.30
2018-06-30T11:21:57.532Z,22.32
2018-06-30T11:24:27.552Z,22.18
2018-06-30T11:26:57.327Z,22.27
2018-06-30T11:29:27.012Z,22.44
2018-06-30T11:31:56.838Z,22.42
2018-06-30T11:34:26.460Z,22.14
2018-06-30T11:36:56.174Z,22.23
2018-06-30T11:39:25.733Z,22.49
2018-06-30T11:41:55.370Z,22.25
2018-06-30T11:44:25.717Z,22.35
2018-06-30T11:46:55.216Z,22.42
2018-06-30T11:49:24.908Z,22.45
2018-06-30T11:51:54.612Z,22.48
2018-06-30T11:54:24.183Z,22.43
2018-06-30T11:56:53.796Z,22.49
2018-06-30T11:59:23.406Z,22.45
2018-06-30T12:01:52.879Z,22.51
2018-06-30T12:04:22.988Z,22.53
2018-06-30T12:06:52.808Z,22.52
2018-06-30T12:09:22.497Z,22.44
2018-06-30T12:11:52.423Z,22.62
2018-06-30T12:14:22.488Z,22.68
2018-06-30T12:16:52.298Z,22.72
2018-06-30T12:19:22.186Z,22.60
2018-06-30T12:21:51.974Z,22.67
2018-06-30T12:24:21.655Z,22.55
2018-06-30T12:26:51.167Z,22.62
2018-06-30T12:29:20.839Z,22.63
2018-06-30T12:31:50.347Z,22.62
2018-06-30T12:34:20.042Z,22.60
2018-06-30T12:36:49.763Z,22.65
2018-06-30T12:39:19.271Z,22.66
2018-06-30T12:41:48.914Z,22.63
2018-06-30T12:44:18.558Z,22.52
2018-06-30T12:46:47.942Z,22.59
2018-06-30T12:49:17.570Z,22.65
2018-06-30T12:51:47.228Z,22.60
2018-06-30T12:54:16.862Z,22.79
2018-06-30T12:56:46.695Z,22.65
2018-06-30T12:59:16.364Z,22.63
2018-06-30T13:01:45.798Z,22.73
2018-06-30T13:04:15.497Z,22.70
2018-06-30T13:06:45.280Z,22.89
2018-06-30T13:09:14.810Z,22.28
2018-06-30T13:11:44.584Z,22.73
2018-06-30T13:14:14.179Z,22.72
2018-06-30T13:16:43.687Z,22.80
2018-06-30T13:19:13.285Z,22.78
2018-06-30T13:21:42.585Z,22.90
2018-06-30T13:24:12.134Z,22.87
2018-06-30T13:26:41.774Z,22.67
2018-06-30T13:29:11.570Z,22.82
2018-06-30T13:31:41.048Z,22.98
2018-06-30T13:34:10.856Z,22.95
2018-06-30T13:36:40.553Z,22.90
2018-06-30T13:39:13.125Z,22.83
2018-06-30T13:41:42.979Z,22.87
2018-06-30T13:44:13.261Z,22.80
2018-06-30T13:46:42.656Z,22.96
2018-06-30T13:49:12.262Z,23.05
2018-06-30T13:51:41.927Z,23.00
2018-06-30T13:54:11.377Z,23.04
2018-06-30T13:56:41.092Z,22.97
2018-06-30T13:59:11.554Z,22.97
2018-06-30T14:01:41.057Z,23.01
2018-06-30T14:04:11.089Z,23.13
2018-06-30T14:09:10.724Z,23.13
2018-06-30T14:11:40.506Z,23.31
2018-06-30T14:14:10.706Z,23.26
2018-06-30T14:16:40.289Z,23.03
2018-06-30T14:19:10.063Z,23.03
2018-06-30T14:21:39.686Z,22.88
2018-06-30T14:24:09.254Z,22.97
2018-06-30T14:26:39.169Z,23.00
2018-06-30T14:29:08.807Z,22.98
2018-06-30T14:31:38.797Z,22.86
2018-06-30T14:34:08.539Z,22.98
2018-06-30T14:36:38.060Z,23.01
2018-06-30T14:39:11.494Z,23.03
2018-06-30T14:41:40.967Z,22.89
2018-06-30T14:44:10.878Z,22.94
2018-06-30T14:46:40.734Z,22.98
2018-06-30T14:49:10.650Z,22.93
2018-06-30T14:51:40.432Z,22.88
2018-06-30T14:54:10.091Z,22.87
2018-06-30T14:56:39.984Z,22.79
2018-06-30T14:59:10.624Z,22.83
2018-06-30T15:01:40.612Z,22.81
2018-06-30T15:04:10.472Z,22.81
2018-06-30T15:06:40.059Z,22.78
2018-06-30T15:09:16.651Z,22.56
2018-06-30T15:11:46.636Z,22.69
2018-06-30T15:14:16.452Z,22.65
2018-06-30T15:16:46.044Z,22.74
2018-06-30T15:19:15.833Z,22.86
2018-06-30T15:21:45.458Z,22.79
2018-06-30T15:24:15.214Z,22.86
2018-06-30T15:26:45.210Z,22.86
2018-06-30T15:29:14.914Z,22.86
2018-06-30T15:31:44.520Z,22.65
2018-06-30T15:34:14.701Z,22.73
2018-06-30T15:36:44.552Z,22.70
2018-06-30T15:39:14.249Z,22.74
2018-06-30T15:41:44.122Z,22.67
2018-06-30T15:44:13.944Z,22.85
2018-06-30T15:46:43.604Z,22.58
2018-06-30T15:49:13.468Z,22.56
2018-06-30T15:51:43.580Z,22.50
2018-06-30T15:54:13.048Z,22.57
2018-06-30T15:56:43.151Z,22.47
2018-06-30T15:59:12.834Z,22.64
2018-06-30T16:01:42.592Z,22.52
2018-06-30T16:04:12.709Z,22.48
2018-06-30T16:06:42.164Z,22.38
2018-06-30T16:09:12.357Z,22.25
2018-06-30T16:11:42.414Z,22.26
2018-06-30T16:14:13.144Z,22.28
2018-06-30T16:16:42.573Z,22.27
2018-06-30T16:19:12.421Z,22.32
2018-06-30T16:21:41.889Z,22.40
2018-06-30T16:24:11.652Z,22.38
2018-06-30T16:26:41.158Z,22.29
2018-06-30T16:29:10.728Z,22.25
2018-06-30T16:31:40.603Z,22.21
2018-06-30T16:34:10.396Z,22.10
2018-06-30T16:36:39.755Z,22.16
2018-06-30T16:39:10.952Z,22.30
2018-06-30T16:41:40.820Z,22.18
2018-06-30T16:44:10.291Z,22.27
2018-06-30T16:46:39.897Z,22.22
2018-06-30T16:49:09.866Z,22.23
2018-06-30T16:51:39.593Z,22.17
2018-06-30T16:54:09.047Z,22.14
2018-06-30T16:56:38.823Z,22.23
2018-06-30T16:59:08.579Z,22.20
2018-06-30T17:01:38.182Z,22.23
2018-06-30T17:04:08.272Z,22.16
2018-06-30T17:06:37.727Z,22.04
2018-06-30T17:09:10.656Z,22.17
2018-06-30T17:11:40.376Z,21.97
2018-06-30T17:14:10.781Z,21.96
2018-06-30T17:16:41.058Z,22.07
2018-06-30T17:19:10.749Z,22.00
2018-06-30T17:21:40.201Z,21.85
2018-06-30T17:24:10.036Z,21.93
2018-06-30T17:26:39.416Z,21.90
2018-06-30T17:29:09.187Z,21.77
2018-06-30T17:31:39.642Z,21.72
2018-06-30T17:34:09.231Z,21.72
2018-06-30T17:36:38.972Z,21.65
2018-06-30T17:39:10.383Z,21.52
2018-06-30T17:41:40.876Z,21.60
2018-06-30T17:44:10.598Z,21.53
2018-06-30T17:46:40.424Z,21.48
2018-06-30T17:49:10.061Z,21.56
2018-06-30T17:51:39.776Z,21.50
2018-06-30T17:54:10.062Z,21.48
2018-06-30T17:56:39.586Z,21.47
2018-06-30T17:59:09.522Z,21.44
2018-06-30T18:01:39.541Z,21.43
2018-06-30T18:04:09.075Z,21.49
2018-06-30T18:06:38.861Z,21.41
2018-06-30T18:09:10.156Z,21.48
2018-06-30T18:11:40.072Z,21.43
2018-06-30T18:14:10.116Z,21.38
2018-06-30T18:16:39.485Z,21.37
2018-06-30T18:19:09.134Z,21.36
2018-06-30T18:21:38.808Z,21.38
2018-06-30T18:24:08.402Z,21.36
2018-06-30T18:26:37.998Z,21.28
2018-06-30T18:29:07.692Z,21.28
2018-06-30T18:31:37.280Z,21.18
2018-06-30T18:34:07.144Z,21.22
2018-06-30T18:36:36.972Z,21.16
2018-06-30T18:39:09.763Z,21.17
2018-06-30T18:41:39.857Z,21.08
2018-06-30T18:44:09.389Z,20.99
2018-06-30T18:46:39.233Z,20.97
2018-06-30T18:49:08.963Z,20.98
2018-06-30T18:51:38.569Z,20.97
2018-06-30T18:54:09.002Z,20.93
2018-06-30T18:56:38.477Z,20.92
2018-06-30T18:59:07.930Z,20.78
2018-06-30T19:01:37.588Z,20.87
2018-06-30T19:04:07.546Z,20.87
2018-06-30T19:06:37.243Z,20.91
2018-06-30T19:09:08.746Z,20.92
2018-06-30T19:11:38.472Z,20.73
2018-06-30T19:14:08.711Z,20.68
2018-06-30T19:16:38.546Z,20.53
2018-06-30T19:19:08.145Z,20.64
2018-06-30T19:21:37.905Z,20.64
2018-06-30T19:24:07.443Z,20.63
2018-06-30T19:26:37.464Z,20.54
2018-06-30T19:29:06.971Z,20.55
2018-06-30T19:31:37.038Z,20.52
2018-06-30T19:34:06.913Z,20.44
2018-06-30T19:36:38.380Z,20.45
2018-06-30T19:39:11.771Z,20.36
2018-06-30T19:41:41.621Z,20.34
2018-06-30T19:44:11.509Z,20.32
2018-06-30T19:46:41.227Z,20.27
2018-06-30T19:49:10.927Z,20.19
2018-06-30T19:51:40.854Z,20.14
2018-06-30T19:54:12.116Z,20.04
2018-06-30T19:56:43.257Z,20.06
2018-06-30T19:59:12.432Z,20.05
2018-06-30T20:01:42.052Z,20.02
2018-06-30T20:04:11.461Z,20.00
2018-06-30T20:06:40.691Z,19.98
2018-06-30T20:09:10.342Z,19.87
2018-06-30T20:11:40.315Z,19.86
2018-06-30T20:14:09.966Z,19.88
2018-06-30T20:16:39.670Z,19.71
2018-06-30T20:19:09.231Z,19.74
2018-06-30T20:21:39.006Z,19.66
2018-06-30T20:24:08.742Z,19.66
2018-06-30T20:26:38.312Z,19.61
2018-06-30T20:29:07.864Z,19.60
2018-06-30T20:31:37.489Z,19.57
2018-06-30T20:34:07.235Z,19.55
2018-06-30T20:36:36.891Z,19.51
2018-06-30T20:39:08.616Z,19.52
2018-06-30T20:41:38.687Z,19.44
2018-06-30T20:44:08.716Z,19.44
2018-06-30T20:46:38.606Z,19.44
2018-06-30T20:49:08.409Z,19.29
2018-06-30T20:51:38.323Z,19.27
2018-06-30T20:54:08.151Z,19.22
2018-06-30T20:56:39.118Z,19.21
2018-06-30T20:59:09.171Z,19.19
2018-06-30T21:01:38.661Z,19.19
2018-06-30T21:04:08.321Z,19.28
2018-06-30T21:06:38.437Z,19.15
2018-06-30T21:09:10.331Z,19.14
2018-06-30T21:11:40.551Z,19.04
2018-06-30T21:14:10.944Z,19.01
2018-06-30T21:16:40.549Z,18.98
2018-06-30T21:19:10.760Z,18.96
2018-06-30T21:21:40.388Z,18.95
2018-06-30T21:24:10.054Z,18.89
2018-06-30T21:26:40.068Z,18.89
2018-06-30T21:29:09.682Z,18.95
2018-06-30T21:31:39.363Z,18.97
2018-06-30T21:34:09.076Z,18.94
2018-06-30T21:36:39.095Z,18.97
2018-06-30T21:39:11.945Z,18.90
2018-06-30T21:41:41.872Z,18.84
2018-06-30T21:44:11.550Z,18.80
2018-06-30T21:46:40.974Z,18.82
2018-06-30T21:49:10.675Z,18.84
2018-06-30T21:51:40.392Z,18.85
2018-06-30T21:54:11.121Z,18.81
2018-06-30T21:56:41.228Z,18.78
2018-06-30T21:59:11.139Z,18.71
2018-06-30T22:01:41.757Z,18.66
2018-06-30T22:04:11.874Z,18.63
2018-06-30T22:06:41.470Z,18.61
2018-06-30T22:09:11.695Z,18.47
2018-06-30T22:11:41.908Z,18.40
2018-06-30T22:14:11.556Z,18.37
2018-06-30T22:16:41.066Z,18.31
2018-06-30T22:19:10.855Z,18.27
2018-06-30T22:21:40.213Z,18.26
2018-06-30T22:24:09.681Z,18.27
2018-06-30T22:26:39.280Z,18.27
2018-06-30T22:29:08.754Z,18.23
2018-06-30T22:31:38.125Z,18.22
2018-06-30T22:34:07.917Z,18.17
2018-06-30T22:36:37.395Z,18.08
2018-06-30T22:39:09.938Z,18.04
2018-06-30T22:41:40.055Z,18.05
2018-06-30T22:44:10.024Z,17.97
2018-06-30T22:46:39.786Z,17.96
2018-06-30T22:49:09.286Z,17.99
2018-06-30T22:51:39.620Z,18.04
2018-06-30T22:54:09.350Z,17.82
2018-06-30T22:56:39.049Z,17.75
2018-06-30T22:59:08.540Z,17.76
2018-06-30T23:01:38.768Z,17.74
2018-06-30T23:04:08.346Z,17.73
2018-06-30T23:06:38.290Z,17.68
2018-06-30T23:09:10.373Z,17.55
2018-06-30T23:11:40.237Z,17.46
2018-06-30T23:14:09.828Z,17.39
2018-06-30T23:16:39.969Z,17.40
2018-06-30T23:19:09.498Z,17.30
2018-06-30T23:21:38.713Z,17.11
2018-06-30T23:24:08.470Z,17.12
2018-06-30T23:26:37.879Z,16.94
2018-06-30T23:29:07.344Z,17.05
2018-06-30T23:31:37.276Z,17.14
2018-06-30T23:34:06.805Z,17.16
2018-06-30T23:36:36.478Z,17.16
2018-06-30T23:39:08.835Z,17.10
2018-06-30T23:41:38.804Z,17.10
2018-06-30T23:44:08.611Z,17.02
2018-06-30T23:46:38.528Z,17.04
2018-06-30T23:49:08.286Z,17.00
2018-06-30T23:51:37.802Z,16.96
2018-06-30T23:54:07.299Z,16.95
2018-06-30T23:56:36.985Z,16.99
2018-06-30T23:59:06.423Z,16.97
